createdAt,value
2023-02-07T00:01:32.732Z,80.40
2023-02-07T00:03:59.516Z,80.50
2023-02-07T00:06:28.397Z,80.60
2023-02-07T00:08:55.146Z,80.80
2023-02-07T00:11:23.348Z,80.70
2023-02-07T00:13:52.169Z,80.70
2023-02-07T00:16:19.052Z,80.50
2023-02-07T00:18:46.077Z,80.60
2023-02-07T00:21:15.108Z,80.70
2023-02-07T00:23:42.006Z,80.70
2023-02-07T00:26:08.777Z,80.60
2023-02-07T00:28:35.748Z,80.70
2023-02-07T00:31:03.332Z,80.70
2023-02-07T00:33:30.316Z,80.80
2023-02-07T00:35:58.668Z,81.00
2023-02-07T00:38:25.534Z,81.00
2023-02-07T00:40:52.200Z,80.80
2023-02-07T00:43:29.001Z,81.10
2023-02-07T00:45:57.829Z,81.30
2023-02-07T00:48:24.504Z,81.40
2023-02-07T00:50:51.230Z,81.30
2023-02-07T00:53:17.878Z,81.20
2023-02-07T00:55:44.535Z,81.30
2023-02-07T00:58:11.143Z,81.60
2023-02-07T01:00:37.891Z,82.00
2023-02-07T01:03:04.524Z,82.00
2023-02-07T01:05:32.280Z,81.80
2023-02-07T01:07:59.046Z,82.00
2023-02-07T01:10:25.772Z,82.10
2023-02-07T01:12:52.764Z,82.20
2023-02-07T01:15:21.884Z,82.20
2023-02-07T01:17:48.599Z,82.20
2023-02-07T01:20:15.431Z,82.30
2023-02-07T01:22:42.135Z,82.20
2023-02-07T01:25:11.053Z,82.60
2023-02-07T01:27:37.780Z,82.70
2023-02-07T01:30:05.066Z,82.70
2023-02-07T01:32:34.629Z,82.50
2023-02-07T01:35:01.354Z,82.40
2023-02-07T01:37:28.032Z,82.50
2023-02-07T01:39:54.783Z,82.70
2023-02-07T01:42:22.416Z,82.80
2023-02-07T01:44:50.165Z,82.90
2023-02-07T01:47:19.013Z,82.80
2023-02-07T01:49:45.889Z,82.80
2023-02-07T01:52:15.310Z,82.80
2023-02-07T01:54:42.411Z,82.80
2023-02-07T01:57:12.238Z,82.80
2023-02-07T01:59:38.926Z,82.80
2023-02-07T02:02:05.528Z,82.80
2023-02-07T02:04:32.228Z,82.80
2023-02-07T02:06:58.949Z,83.00
2023-02-07T02:09:27.116Z,83.00
2023-02-07T02:12:08.888Z,82.80
2023-02-07T02:14:39.414Z,82.60
2023-02-07T02:17:33.105Z,82.80
2023-02-07T02:20:27.661Z,82.60
2023-02-07T02:22:54.226Z,82.90
2023-02-07T02:25:36.241Z,82.90
2023-02-07T02:28:28.495Z,82.60
2023-02-07T02:31:14.187Z,82.90
2023-02-07T02:33:52.962Z,82.90
2023-02-07T02:36:33.272Z,82.90
2023-02-07T02:39:08.786Z,82.70
2023-02-07T02:41:42.341Z,82.90
2023-02-07T02:44:22.348Z,82.90
2023-02-07T02:46:49.058Z,82.80
2023-02-07T02:49:15.780Z,82.90
2023-02-07T02:51:42.418Z,83.00
2023-02-07T02:54:47.461Z,83.00
2023-02-07T02:57:31.886Z,82.90
2023-02-07T03:00:14.125Z,83.20
2023-02-07T03:03:07.477Z,83.50
2023-02-07T03:05:54.980Z,83.40
2023-02-07T03:08:40.977Z,83.20
2023-02-07T03:11:17.748Z,83.30
2023-02-07T03:14:10.631Z,83.20
2023-02-07T03:16:42.391Z,83.10
2023-02-07T03:19:50.457Z,83.00
2023-02-07T03:22:19.158Z,82.90
2023-02-07T03:24:48.106Z,83.10
2023-02-07T03:27:16.452Z,83.10
2023-02-07T03:29:45.721Z,83.30
2023-02-07T03:32:15.842Z,83.40
2023-02-07T03:34:51.411Z,83.60
2023-02-07T03:37:34.019Z,84.20
2023-02-07T03:40:00.673Z,83.80
2023-02-07T03:42:51.950Z,84.20
2023-02-07T03:45:19.694Z,83.70
2023-02-07T03:47:46.520Z,84.10
2023-02-07T03:50:13.404Z,83.90
2023-02-07T03:52:40.116Z,83.80
2023-02-07T03:55:07.337Z,83.50
2023-02-07T03:57:34.244Z,84.00
2023-02-07T04:00:01.089Z,84.20
2023-02-07T04:02:27.801Z,84.20
2023-02-07T04:04:54.522Z,84.10
2023-02-07T04:07:21.200Z,84.30
2023-02-07T04:09:47.826Z,84.60
2023-02-07T04:12:14.555Z,84.70
2023-02-07T04:14:41.158Z,84.80
2023-02-07T04:17:07.784Z,84.80
2023-02-07T04:19:34.400Z,84.90
2023-02-07T04:22:01.117Z,84.90
2023-02-07T04:24:27.981Z,84.70
2023-02-07T04:26:54.628Z,85.00
2023-02-07T04:29:21.323Z,85.10
2023-02-07T04:31:47.938Z,85.30
2023-02-07T04:34:14.626Z,85.20
2023-02-07T04:36:41.581Z,85.30
2023-02-07T04:39:08.439Z,85.30
2023-02-07T04:41:35.133Z,85.20
2023-02-07T04:44:01.803Z,85.20
2023-02-07T04:46:28.486Z,85.30
2023-02-07T04:48:55.173Z,85.40
2023-02-07T04:51:21.779Z,85.50
2023-02-07T04:53:49.474Z,85.60
2023-02-07T04:56:16.126Z,85.40
2023-02-07T04:58:42.776Z,85.50
2023-02-07T05:01:09.671Z,85.50
2023-02-07T05:03:36.394Z,85.30
2023-02-07T05:06:03.185Z,85.30
2023-02-07T05:08:29.849Z,85.30
2023-02-07T05:10:56.553Z,85.70
2023-02-07T05:13:23.386Z,86.00
2023-02-07T05:15:50.108Z,86.50
2023-02-07T05:18:16.858Z,86.70
2023-02-07T05:20:43.616Z,87.00
2023-02-07T05:23:10.430Z,87.50
2023-02-07T05:25:37.347Z,87.70
2023-02-07T05:28:04.248Z,88.00
2023-02-07T05:30:31.301Z,88.30
2023-02-07T05:32:58.015Z,88.60
2023-02-07T05:35:53.828Z,88.60
2023-02-07T05:38:20.731Z,88.70
2023-02-07T05:40:47.536Z,88.70
2023-02-07T05:43:14.328Z,88.80
2023-02-07T05:45:41.446Z,88.80
2023-02-07T05:48:08.360Z,88.60
2023-02-07T05:50:35.049Z,88.70
2023-02-07T05:53:01.932Z,88.90
2023-02-07T05:55:28.584Z,89.00
2023-02-07T05:57:55.277Z,89.10
2023-02-07T06:00:22.103Z,88.80
2023-02-07T06:02:48.802Z,88.80
2023-02-07T06:05:16.957Z,88.60
2023-02-07T06:07:43.698Z,88.50
2023-02-07T06:10:13.077Z,88.40
2023-02-07T06:12:39.697Z,88.20
2023-02-07T06:15:06.809Z,88.40
2023-02-07T06:17:33.445Z,88.40
2023-02-07T06:20:00.197Z,88.40
2023-02-07T06:22:37.020Z,88.30
2023-02-07T06:25:03.657Z,88.40
2023-02-07T06:27:30.391Z,88.50
2023-02-07T06:29:57.269Z,88.40
2023-02-07T06:32:24.032Z,88.50
2023-02-07T06:34:50.763Z,88.40
2023-02-07T06:37:19.889Z,88.30
2023-02-07T06:39:46.726Z,88.40
2023-02-07T06:42:13.520Z,88.50
2023-02-07T06:44:40.365Z,88.50
2023-02-07T06:47:07.004Z,88.50
2023-02-07T06:49:33.731Z,88.40
2023-02-07T06:52:03.060Z,88.40
2023-02-07T06:54:37.449Z,88.20
2023-02-07T06:57:22.555Z,88.10
2023-02-07T06:59:49.311Z,88.00
2023-02-07T07:02:16.001Z,88.00
2023-02-07T07:05:20.898Z,88.00
2023-02-07T07:07:48.156Z,87.90
2023-02-07T07:10:14.886Z,88.00
2023-02-07T07:12:41.559Z,87.90
2023-02-07T07:15:08.558Z,87.90
2023-02-07T07:17:35.234Z,87.80
2023-02-07T07:20:01.875Z,87.80
2023-02-07T07:22:28.512Z,87.90
2023-02-07T07:24:57.499Z,88.00
2023-02-07T07:27:24.222Z,87.80
2023-02-07T07:29:51.880Z,88.00
2023-02-07T07:35:05.825Z,88.00
2023-02-07T07:37:32.545Z,88.10
2023-02-07T07:39:59.242Z,87.90
2023-02-07T07:42:25.928Z,87.90
2023-02-07T07:44:52.689Z,87.80
2023-02-07T07:47:20.356Z,87.90
2023-02-07T07:49:47.527Z,87.90
2023-02-07T07:52:14.444Z,88.00
2023-02-07T07:54:43.699Z,88.10
2023-02-07T07:57:10.302Z,88.30
2023-02-07T07:59:36.928Z,88.40
2023-02-07T08:02:03.647Z,88.30
2023-02-07T08:04:30.341Z,88.30
2023-02-07T08:07:07.233Z,88.50
2023-02-07T08:09:34.002Z,88.70
2023-02-07T08:12:00.635Z,88.70
2023-02-07T08:14:27.281Z,88.60
2023-02-07T08:16:53.870Z,88.60
2023-02-07T08:19:20.537Z,88.70
2023-02-07T08:21:47.215Z,88.80
2023-02-07T08:24:13.900Z,88.90
2023-02-07T08:26:41.672Z,89.00
2023-02-07T08:29:08.734Z,89.00
2023-02-07T08:31:35.444Z,89.10
2023-02-07T08:34:02.191Z,89.00
2023-02-07T08:36:28.889Z,88.80
2023-02-07T08:38:55.600Z,88.80
2023-02-07T08:41:22.263Z,88.50
2023-02-07T08:43:48.959Z,88.70
2023-02-07T08:46:15.784Z,88.80
2023-02-07T08:48:42.442Z,88.90
2023-02-07T08:51:09.217Z,89.00
2023-02-07T08:53:35.900Z,89.10
2023-02-07T08:56:03.754Z,89.20
2023-02-07T08:58:31.607Z,89.30
2023-02-07T09:00:58.397Z,89.20
2023-02-07T09:03:25.079Z,89.30
2023-02-07T09:05:56.616Z,89.40
2023-02-07T09:08:23.242Z,89.20
2023-02-07T09:10:49.960Z,89.10
2023-02-07T09:13:16.647Z,88.80
2023-02-07T09:15:43.261Z,88.60
2023-02-07T09:18:10.021Z,88.50
2023-02-07T09:20:37.436Z,88.70
2023-02-07T09:23:04.275Z,88.70
2023-02-07T09:25:30.894Z,88.60
2023-02-07T09:27:57.588Z,88.20
2023-02-07T09:30:24.277Z,88.40
2023-02-07T09:32:50.910Z,87.90
2023-02-07T09:35:17.693Z,87.70
2023-02-07T09:37:49.662Z,87.60
2023-02-07T09:40:18.007Z,87.50
2023-02-07T09:43:02.685Z,87.70
2023-02-07T09:45:31.516Z,88.20
2023-02-07T09:48:04.610Z,88.10
2023-02-07T09:50:34.537Z,87.60
2023-02-07T09:53:08.670Z,87.30
2023-02-07T09:55:44.778Z,86.70
2023-02-07T09:58:21.152Z,86.30
2023-02-07T10:00:58.494Z,86.20
2023-02-07T10:03:25.290Z,86.20
2023-02-07T10:06:03.552Z,86.60
2023-02-07T10:08:39.700Z,86.60
2023-02-07T10:11:33.320Z,86.50
2023-02-07T10:14:15.344Z,86.10
2023-02-07T10:16:47.696Z,85.80
2023-02-07T10:19:35.992Z,85.90
2023-02-07T10:22:25.029Z,85.40
2023-02-07T10:25:10.383Z,85.60
2023-02-07T10:28:12.376Z,85.20
2023-02-07T10:30:40.038Z,84.90
2023-02-07T10:33:16.319Z,84.90
2023-02-07T10:35:43.939Z,84.50
2023-02-07T10:38:30.055Z,84.90
2023-02-07T10:40:56.699Z,85.50
2023-02-07T10:43:31.175Z,85.50
2023-02-07T10:46:04.488Z,83.80
2023-02-07T10:48:33.171Z,83.10
2023-02-07T10:51:00.475Z,82.40
2023-02-07T10:53:54.270Z,81.30
2023-02-07T10:56:26.381Z,81.70
2023-02-07T10:58:53.063Z,82.20
2023-02-07T11:01:24.570Z,80.90
2023-02-07T11:03:51.413Z,78.70
2023-02-07T11:06:24.854Z,76.50
2023-02-07T11:08:51.638Z,72.90
2023-02-07T11:11:32.315Z,70.80
2023-02-07T11:14:03.603Z,69.20
2023-02-07T11:16:30.346Z,67.10
2023-02-07T11:18:57.959Z,65.80
2023-02-07T11:21:25.968Z,66.30
2023-02-07T11:23:54.757Z,65.40
2023-02-07T11:26:22.659Z,64.00
2023-02-07T11:28:54.792Z,61.40
2023-02-07T11:31:27.284Z,60.00
2023-02-07T11:33:54.003Z,59.20
2023-02-07T11:36:20.770Z,57.80
2023-02-07T11:38:54.158Z,57.20
2023-02-07T11:41:25.286Z,54.80
2023-02-07T11:44:15.504Z,53.30
2023-02-07T11:46:44.107Z,52.90
2023-02-07T11:49:27.333Z,54.00
2023-02-07T11:51:59.143Z,53.20
2023-02-07T11:54:26.143Z,53.50
2023-02-07T11:57:05.158Z,53.50
2023-02-07T11:59:31.984Z,52.50
2023-02-07T12:01:59.752Z,52.80
2023-02-07T12:04:38.007Z,53.40
2023-02-07T12:07:17.512Z,53.20
2023-02-07T12:09:49.474Z,52.30
2023-02-07T12:12:27.473Z,51.80
2023-02-07T12:15:07.004Z,49.90
2023-02-07T12:17:41.551Z,49.80
2023-02-07T12:20:25.114Z,48.10
2023-02-07T12:23:27.941Z,47.40
2023-02-07T12:26:21.550Z,46.20
2023-02-07T12:29:19.160Z,46.00
2023-02-07T12:32:11.359Z,46.90
2023-02-07T12:34:50.685Z,45.40
2023-02-07T12:38:05.412Z,45.90
2023-02-07T12:40:54.981Z,46.50
2023-02-07T12:43:30.681Z,45.40
2023-02-07T12:46:00.323Z,45.10
2023-02-07T12:48:55.167Z,43.50
2023-02-07T12:51:38.513Z,43.80
2023-02-07T12:54:35.724Z,43.00
2023-02-07T12:57:14.468Z,43.20
2023-02-07T13:00:03.846Z,42.10
2023-02-07T13:02:43.805Z,40.90
2023-02-07T13:05:31.772Z,41.50
2023-02-07T13:07:58.637Z,41.30
2023-02-07T13:10:25.224Z,41.00
2023-02-07T13:13:02.551Z,41.50
2023-02-07T13:15:51.956Z,40.80
2023-02-07T13:18:27.814Z,39.20
2023-02-07T13:21:01.430Z,40.20
2023-02-07T13:23:30.549Z,40.60
2023-02-07T13:26:00.595Z,39.80
2023-02-07T13:28:44.310Z,38.90
2023-02-07T13:31:14.152Z,38.70
2023-02-07T13:33:40.962Z,39.20
2023-02-07T13:36:29.900Z,38.10
2023-02-07T13:38:58.938Z,37.70
2023-02-07T13:41:49.398Z,37.80
2023-02-07T13:44:43.563Z,37.10
2023-02-07T13:47:31.491Z,37.60
2023-02-07T13:50:03.874Z,37.60
2023-02-07T13:52:32.504Z,38.10
2023-02-07T13:55:10.383Z,37.20
2023-02-07T13:57:37.029Z,37.00
2023-02-07T14:00:08.456Z,35.70
2023-02-07T14:02:42.964Z,35.70
2023-02-07T14:05:20.256Z,36.50
2023-02-07T14:07:55.450Z,37.00
2023-02-07T14:10:51.269Z,35.80
2023-02-07T14:13:28.025Z,36.30
2023-02-07T14:16:06.802Z,36.20
2023-02-07T14:18:49.996Z,35.50
2023-02-07T14:21:19.721Z,35.20
2023-02-07T14:24:09.383Z,35.50
2023-02-07T14:26:38.765Z,36.60
2023-02-07T14:29:20.626Z,37.30
2023-02-07T14:31:47.807Z,38.40
2023-02-07T14:34:15.122Z,39.60
2023-02-07T14:36:42.120Z,40.50
2023-02-07T14:39:11.635Z,42.30
2023-02-07T14:41:39.492Z,42.60
2023-02-07T14:44:09.785Z,43.50
2023-02-07T14:46:50.389Z,44.20
2023-02-07T14:49:32.011Z,44.70
2023-02-07T14:52:05.705Z,46.10
2023-02-07T14:54:55.808Z,46.90
2023-02-07T14:57:26.677Z,47.80
2023-02-07T15:00:02.517Z,47.60
2023-02-07T15:02:36.185Z,48.30
2023-02-07T15:05:38.906Z,49.00
2023-02-07T15:08:05.609Z,49.50
2023-02-07T15:11:05.357Z,49.40
2023-02-07T15:13:45.645Z,49.70
2023-02-07T15:16:12.309Z,50.40
2023-02-07T15:18:59.812Z,50.70
2023-02-07T15:21:40.976Z,51.30
2023-02-07T15:24:27.960Z,52.20
2023-02-07T15:26:59.023Z,52.20
2023-02-07T15:29:28.493Z,52.70
2023-02-07T15:31:55.369Z,52.90
2023-02-07T15:34:24.078Z,53.10
2023-02-07T15:36:52.103Z,53.70
2023-02-07T15:39:23.138Z,53.20
2023-02-07T15:41:51.155Z,54.10
2023-02-07T15:44:27.765Z,54.10
2023-02-07T15:46:59.395Z,54.10
2023-02-07T15:49:31.165Z,54.30
2023-02-07T15:52:23.949Z,54.60
2023-02-07T15:54:51.864Z,54.70
2023-02-07T15:57:40.255Z,55.10
2023-02-07T16:00:08.196Z,55.50
2023-02-07T16:02:36.850Z,56.60
2023-02-07T16:05:10.711Z,55.10
2023-02-07T16:07:37.908Z,55.00
2023-02-07T16:10:31.448Z,55.60
2023-02-07T16:13:11.166Z,56.70
2023-02-07T16:15:39.072Z,56.60
2023-02-07T16:18:05.971Z,56.80
2023-02-07T16:20:34.629Z,57.40
2023-02-07T16:23:03.034Z,57.90
2023-02-07T16:25:31.545Z,58.10
2023-02-07T16:27:58.238Z,58.10
2023-02-07T16:30:29.081Z,58.10
2023-02-07T16:32:55.752Z,58.00
2023-02-07T16:35:26.254Z,58.30
2023-02-07T16:37:53.128Z,58.90
2023-02-07T16:40:20.033Z,59.10
2023-02-07T16:42:46.689Z,59.50
2023-02-07T16:45:22.890Z,60.10
2023-02-07T16:47:49.771Z,60.40
2023-02-07T16:50:18.345Z,60.60
2023-02-07T16:52:46.126Z,61.00
2023-02-07T16:55:12.744Z,61.30
2023-02-07T16:57:39.507Z,61.30
2023-02-07T17:00:06.787Z,61.70
2023-02-07T17:02:33.470Z,62.30
2023-02-07T17:05:00.152Z,62.50
2023-02-07T17:07:26.839Z,62.00
2023-02-07T17:09:53.543Z,62.70
2023-02-07T17:12:20.695Z,62.90
2023-02-07T17:14:47.394Z,63.10
2023-02-07T17:17:14.119Z,62.90
2023-02-07T17:19:40.791Z,63.00
2023-02-07T17:22:07.491Z,63.70
2023-02-07T17:24:34.101Z,64.00
2023-02-07T17:27:00.736Z,64.10
2023-02-07T17:29:27.431Z,64.30
2023-02-07T17:31:54.054Z,64.40
2023-02-07T17:34:20.791Z,64.50
2023-02-07T17:36:48.565Z,64.70
2023-02-07T17:39:16.064Z,64.60
2023-02-07T17:41:42.767Z,64.80
2023-02-07T17:44:09.458Z,65.10
2023-02-07T17:46:36.143Z,65.10
2023-02-07T17:49:02.811Z,65.30
2023-02-07T17:51:29.590Z,65.10
2023-02-07T17:53:56.322Z,65.20
2023-02-07T17:56:24.838Z,65.40
2023-02-07T17:58:51.922Z,65.40
2023-02-07T18:01:18.652Z,65.40
2023-02-07T18:03:48.956Z,65.50
2023-02-07T18:06:16.617Z,65.50
2023-02-07T18:08:43.578Z,65.80
2023-02-07T18:11:10.546Z,65.80
2023-02-07T18:13:37.715Z,66.00
2023-02-07T18:16:04.899Z,66.00
2023-02-07T18:18:31.533Z,66.20
2023-02-07T18:20:58.221Z,66.10
2023-02-07T18:23:25.281Z,66.30
2023-02-07T18:25:51.999Z,66.30
2023-02-07T18:28:18.735Z,66.60
2023-02-07T18:30:48.100Z,66.60
2023-02-07T18:33:14.851Z,66.70
2023-02-07T18:35:41.626Z,66.80
2023-02-07T18:38:08.327Z,66.80
2023-02-07T18:40:34.945Z,67.00
2023-02-07T18:43:01.646Z,67.10
2023-02-07T18:45:28.473Z,66.90
2023-02-07T18:47:55.105Z,66.90
2023-02-07T18:50:21.770Z,67.10
2023-02-07T18:52:48.505Z,67.40
2023-02-07T18:55:15.300Z,67.60
2023-02-07T18:57:41.948Z,67.70
2023-02-07T19:00:09.598Z,68.00
2023-02-07T19:02:36.739Z,68.10
2023-02-07T19:05:03.448Z,67.70
2023-02-07T19:07:33.208Z,67.80
2023-02-07T19:10:03.114Z,68.00
2023-02-07T19:12:29.809Z,68.40
2023-02-07T19:14:56.545Z,68.60
2023-02-07T19:17:25.327Z,68.50
2023-02-07T19:19:52.687Z,68.40
2023-02-07T19:22:30.008Z,68.40
2023-02-07T19:25:00.854Z,68.50
2023-02-07T19:27:27.953Z,68.50
2023-02-07T19:29:54.952Z,68.50
2023-02-07T19:32:21.969Z,68.60
2023-02-07T19:34:49.989Z,68.70
2023-02-07T19:37:18.070Z,69.10
2023-02-07T19:39:45.080Z,69.10
2023-02-07T19:42:12.025Z,69.20
2023-02-07T19:44:38.869Z,69.40
2023-02-07T19:47:05.549Z,69.40
2023-02-07T19:49:32.324Z,69.40
2023-02-07T19:51:59.053Z,69.80
2023-02-07T19:54:25.678Z,69.70
2023-02-07T19:56:52.415Z,70.00
2023-02-07T19:59:19.223Z,70.00
2023-02-07T20:01:46.020Z,69.80
2023-02-07T20:04:12.827Z,69.80
2023-02-07T20:06:39.485Z,70.20
2023-02-07T20:09:06.492Z,70.40
2023-02-07T20:11:33.354Z,70.00
2023-02-07T20:14:00.502Z,70.20
2023-02-07T20:16:28.752Z,70.30
2023-02-07T20:18:55.545Z,70.30
2023-02-07T20:21:24.323Z,70.30
2023-02-07T20:23:52.177Z,70.40
2023-02-07T20:26:22.177Z,70.60
2023-02-07T20:28:48.819Z,70.50
2023-02-07T20:31:17.772Z,70.70
2023-02-07T20:33:44.552Z,70.70
2023-02-07T20:36:12.738Z,70.30
2023-02-07T20:38:39.464Z,70.60
2023-02-07T20:41:11.131Z,70.60
2023-02-07T20:43:37.961Z,70.50
2023-02-07T20:46:06.532Z,70.50
2023-02-07T20:48:33.729Z,70.80
2023-02-07T20:51:00.414Z,70.80
2023-02-07T20:53:28.515Z,70.50
2023-02-07T20:56:07.294Z,70.80
2023-02-07T20:58:33.990Z,71.20
2023-02-07T21:01:08.449Z,71.30
2023-02-07T21:03:36.439Z,71.00
2023-02-07T21:06:03.519Z,71.30
2023-02-07T21:08:30.542Z,71.50
2023-02-07T21:10:57.611Z,71.30
2023-02-07T21:13:24.967Z,71.50
2023-02-07T21:16:02.535Z,71.60
2023-02-07T21:18:29.834Z,71.60
2023-02-07T21:20:56.944Z,71.80
2023-02-07T21:23:23.855Z,71.90
2023-02-07T21:25:50.733Z,72.00
2023-02-07T21:28:17.472Z,72.00
2023-02-07T21:30:44.271Z,72.10
2023-02-07T21:33:11.098Z,72.20
2023-02-07T21:35:37.834Z,72.30
2023-02-07T21:38:04.539Z,72.40
2023-02-07T21:40:31.177Z,72.70
2023-02-07T21:42:57.821Z,72.60
2023-02-07T21:45:25.017Z,72.50
2023-02-07T21:47:51.687Z,72.90
2023-02-07T21:50:18.424Z,73.10
2023-02-07T21:52:45.094Z,72.90
2023-02-07T21:55:11.781Z,72.80
2023-02-07T21:57:38.497Z,73.00
2023-02-07T22:00:05.739Z,73.20
2023-02-07T22:02:32.470Z,73.40
2023-02-07T22:04:59.241Z,73.70
2023-02-07T22:07:25.969Z,73.80
2023-02-07T22:09:52.682Z,73.70
2023-02-07T22:12:19.459Z,73.80
2023-02-07T22:14:46.068Z,73.90
2023-02-07T22:17:12.680Z,73.80
2023-02-07T22:19:39.449Z,73.70
2023-02-07T22:22:06.086Z,73.70
2023-02-07T22:24:32.727Z,74.20
2023-02-07T22:26:59.492Z,74.30
2023-02-07T22:29:26.183Z,74.10
2023-02-07T22:31:52.976Z,74.20
2023-02-07T22:34:19.712Z,74.20
2023-02-07T22:36:46.368Z,74.20
2023-02-07T22:39:14.249Z,74.00
2023-02-07T22:41:40.989Z,74.00
2023-02-07T22:44:07.876Z,74.20
2023-02-07T22:46:34.646Z,74.30
2023-02-07T22:49:01.308Z,74.30
2023-02-07T22:51:30.091Z,74.50
2023-02-07T22:53:59.290Z,74.70
2023-02-07T22:56:26.102Z,74.70
2023-02-07T22:58:53.657Z,74.70
2023-02-07T23:01:22.834Z,74.80
2023-02-07T23:03:49.735Z,74.80
2023-02-07T23:06:16.541Z,74.70
2023-02-07T23:08:43.428Z,74.80
2023-02-07T23:11:11.006Z,74.60
2023-02-07T23:13:37.690Z,74.80
2023-02-07T23:16:04.498Z,75.00
2023-02-07T23:18:31.184Z,74.80
2023-02-07T23:20:57.846Z,74.70
2023-02-07T23:23:25.019Z,74.90
2023-02-07T23:25:51.707Z,74.80
2023-02-07T23:28:18.415Z,75.00
2023-02-07T23:30:45.324Z,75.20
2023-02-07T23:33:12.049Z,75.30
2023-02-07T23:35:38.764Z,75.30
2023-02-07T23:38:05.502Z,75.50
2023-02-07T23:40:32.235Z,75.40
2023-02-07T23:42:58.872Z,75.50
2023-02-07T23:45:25.629Z,75.30
2023-02-07T23:47:52.258Z,75.40
2023-02-07T23:50:18.953Z,75.60
2023-02-07T23:52:45.817Z,75.80
2023-02-07T23:55:12.491Z,75.70
2023-02-07T23:57:39.226Z,75.50
